Time;durP1;ratioP1;P1;durP2;ratioP2;P2;SDS_P1;SDS_P2;PMS_P1;PMS_P2;Temp;Humidity;BMP_temperature;BMP_pressure;BME280_temperature;BME280_humidity;BME280_pressure;Samples;Min_cycle;Max_cycle;Signal;HPM_P1;HPM_P2
2023/09/29 00:01:13;;;;;;;14.70;4.03;;;;;;;16.36;100.00;101325.34;5013832;28;20044;-52
2023/09/29 00:03:39;;;;;;;11.90;4.13;;;;;;;16.32;100.00;101314.00;5031831;28;20044;-48
2023/09/29 00:06:08;;;;;;;14.05;3.88;;;;;;;16.43;100.00;101321.47;5014195;28;20116;-49
2023/09/29 00:08:34;;;;;;;13.93;4.05;;;;;;;16.07;100.00;101247.06;5031605;28;20069;-50
2023/09/29 00:11:00;;;;;;;11.75;3.65;;;;;;;16.33;100.00;101302.44;5031515;28;20048;-52
2023/09/29 00:13:26;;;;;;;16.00;4.32;;;;;;;16.42;100.00;101318.88;5031492;28;20112;-50
2023/09/29 00:15:51;;;;;;;11.05;3.83;;;;;;;16.46;100.00;101310.66;5031569;28;20627;-54
2023/09/29 00:18:16;;;;;;;15.70;4.30;;;;;;;16.52;100.00;101307.69;5031600;28;20362;-52
2023/09/29 00:20:42;;;;;;;15.60;4.28;;;;;;;16.22;100.00;101266.72;5031749;28;20120;-51
2023/09/29 00:23:09;;;;;;;11.45;3.92;;;;;;;16.05;100.00;101222.38;5031448;28;20088;-50
2023/09/29 00:25:34;;;;;;;10.73;3.22;;;;;;;16.52;100.00;101298.88;5031416;28;20033;-48
2023/09/29 00:28:00;;;;;;;10.80;3.78;;;;;;;16.54;100.00;101311.19;5030365;28;20033;-50
2023/09/29 00:30:25;;;;;;;14.63;4.05;;;;;;;16.53;100.00;101316.53;5031391;28;20030;-54
2023/09/29 00:32:52;;;;;;;12.88;4.40;;;;;;;16.56;100.00;101316.41;5031609;28;20420;-53
2023/09/29 00:35:27;;;;;;;11.48;3.65;;;;;;;16.58;100.00;101314.56;5013936;28;20495;-49
2023/09/29 00:37:57;;;;;;;12.02;4.40;;;;;;;16.14;100.00;101227.22;5031334;28;20401;-49
2023/09/29 00:40:23;;;;;;;13.47;4.40;;;;;;;15.99;100.00;101208.56;5030027;28;20033;-53
2023/09/29 00:42:49;;;;;;;14.63;4.63;;;;;;;16.25;100.00;101253.28;5031263;28;20032;-49
2023/09/29 00:45:20;;;;;;;10.20;3.63;;;;;;;16.16;100.00;101232.47;5031611;28;20036;-51
2023/09/29 00:47:49;;;;;;;18.27;4.97;;;;;;;16.58;100.00;101311.91;5032199;28;20391;-48
2023/09/29 00:50:14;;;;;;;9.05;3.25;;;;;;;16.59;100.00;101303.84;5033950;28;20036;-50
2023/09/29 00:52:41;;;;;;;15.38;4.45;;;;;;;16.30;100.00;101251.25;5017380;28;20473;-51
2023/09/29 00:55:11;;;;;;;16.02;4.90;;;;;;;16.21;100.00;101238.41;5017356;28;20427;-53
2023/09/29 00:57:39;;;;;;;14.55;4.00;;;;;;;16.32;100.00;101244.94;5017033;28;20041;-50
2023/09/29 01:00:29;;;;;;;11.30;3.95;;;;;;;16.16;100.00;101216.56;5034713;28;20141;-51
2023/09/29 01:03:09;;;;;;;11.23;3.72;;;;;;;16.49;100.00;101269.81;5019442;28;20121;-48
2023/09/29 01:05:43;;;;;;;15.90;4.35;;;;;;;16.43;100.00;101262.16;5018181;28;20033;-54
2023/09/29 01:08:10;;;;;;;13.23;3.38;;;;;;;16.55;100.00;101290.81;5034441;28;20041;-50
2023/09/29 01:10:36;;;;;;;13.98;3.92;;;;;;;16.24;100.00;101243.59;5034908;28;20109;-48
2023/09/29 01:13:02;;;;;;;11.52;3.70;;;;;;;16.45;100.00;101289.50;5034680;28;20087;-52
2023/09/29 01:15:28;;;;;;;10.68;4.45;;;;;;;15.84;100.00;101186.25;5033380;28;20025;-50
2023/09/29 01:17:54;;;;;;;16.13;3.92;;;;;;;16.39;100.00;101289.78;5034478;28;20374;-54
2023/09/29 01:20:30;;;;;;;12.63;3.60;;;;;;;15.82;100.00;101177.50;5034532;28;20049;-49
2023/09/29 01:22:57;;;;;;;13.70;4.13;;;;;;;16.36;100.00;101264.22;5034605;28;20113;-51
2023/09/29 01:25:22;;;;;;;11.85;4.10;;;;;;;16.39;100.00;101265.88;5016745;28;20049;-50
2023/09/29 01:27:49;;;;;;;11.85;4.03;;;;;;;16.30;100.00;101238.84;5034294;28;20543;-52
2023/09/29 01:30:16;;;;;;;11.88;3.88;;;;;;;16.35;100.00;101246.56;5034346;28;20037;-49
2023/09/29 01:32:42;;;;;;;14.07;4.32;;;;;;;16.01;100.00;101180.13;5033080;28;20092;-49
2023/09/29 01:35:08;;;;;;;12.35;4.18;;;;;;;16.36;100.00;101228.84;5034408;28;20551;-49
2023/09/29 01:37:38;;;;;;;13.75;3.95;;;;;;;16.46;100.00;101248.72;5034293;28;20080;-50
2023/09/29 01:40:05;;;;;;;14.48;4.25;;;;;;;16.14;100.00;101192.69;5034337;28;20045;-51
2023/09/29 01:42:30;;;;;;;13.73;4.63;;;;;;;16.19;100.00;101201.31;5033737;28;20063;-53
2023/09/29 01:44:56;;;;;;;13.23;4.03;;;;;;;16.44;100.00;101235.47;5034066;28;20037;-50
2023/09/29 01:47:21;;;;;;;17.17;4.60;;;;;;;16.45;100.00;101236.34;5016325;28;20037;-50
2023/09/29 01:49:48;;;;;;;12.02;3.95;;;;;;;16.46;100.00;101233.59;5016267;28;20037;-50
2023/09/29 01:52:14;;;;;;;15.27;4.55;;;;;;;16.17;100.00;101167.81;5033975;28;20139;-50
2023/09/29 01:54:39;;;;;;;18.60;4.40;;;;;;;16.32;100.00;101190.94;5033973;28;20069;-51
2023/09/29 01:57:05;;;;;;;13.25;3.40;;;;;;;16.11;100.00;101154.84;5033684;28;20469;-48
2023/09/29 01:59:31;;;;;;;16.20;4.72;;;;;;;16.70;100.00;101271.41;5033559;28;20095;-52
2023/09/29 02:01:56;;;;;;;9.70;3.40;;;;;;;16.36;100.00;101204.91;5033685;28;20045;-50
2023/09/29 02:04:21;;;;;;;13.57;3.88;;;;;;;16.38;100.00;101182.66;5033438;28;20076;-49
2023/09/29 02:06:49;;;;;;;14.05;4.75;;;;;;;16.70;100.00;101231.53;5015925;28;20128;-50
2023/09/29 02:09:14;;;;;;;8.93;4.00;;;;;;;16.31;100.00;101152.88;5033569;28;20045;-53
2023/09/29 02:11:41;;;;;;;13.15;4.60;;;;;;;16.29;100.00;101148.56;5033480;28;20045;-50
2023/09/29 02:14:06;;;;;;;14.55;4.22;;;;;;;16.77;100.00;101224.97;5032914;28;20496;-51
2023/09/29 02:16:32;;;;;;;12.50;4.18;;;;;;;16.69;100.00;101209.44;5033285;28;20034;-52
2023/09/29 02:18:58;;;;;;;10.75;4.00;;;;;;;16.80;100.00;101216.84;5033248;28;20034;-49
2023/09/29 02:21:27;;;;;;;15.45;4.35;;;;;;;16.79;100.00;101220.41;5033390;28;20052;-51
2023/09/29 02:23:55;;;;;;;16.58;4.57;;;;;;;16.35;100.00;101127.00;5033493;28;20079;-52
2023/09/29 02:26:22;;;;;;;16.65;3.88;;;;;;;16.76;100.00;101199.31;5033246;28;20037;-50
2023/09/29 02:28:48;;;;;;;17.00;5.43;;;;;;;16.76;100.00;101189.53;5015365;28;20124;-52
2023/09/29 02:31:14;;;;;;;15.05;4.18;;;;;;;16.44;100.00;101138.97;5033128;28;20040;-54
2023/09/29 02:33:40;;;;;;;12.60;4.32;;;;;;;16.36;100.00;101134.06;5033295;28;20029;-51
2023/09/29 02:36:06;;;;;;;11.60;4.68;;;;;;;16.68;100.00;101189.09;5033168;28;20065;-50
2023/09/29 02:38:31;;;;;;;12.32;4.50;;;;;;;16.78;100.00;101208.09;5031715;28;20128;-47
2023/09/29 02:40:57;;;;;;;11.35;3.92;;;;;;;16.79;100.00;101210.66;5033004;28;20124;-49
2023/09/29 02:43:23;;;;;;;11.02;4.20;;;;;;;16.77;100.00;101195.72;5032847;28;20433;-50
2023/09/29 02:45:48;;;;;;;14.68;4.70;;;;;;;16.76;100.00;101183.34;5032945;28;20128;-52
2023/09/29 02:48:13;;;;;;;10.48;4.28;;;;;;;16.68;100.00;101177.59;5030653;28;20037;-48
2023/09/29 02:50:39;;;;;;;15.35;4.97;;;;;;;16.31;100.00;101118.34;5015003;28;20155;-50
2023/09/29 02:53:05;;;;;;;12.63;3.78;;;;;;;16.61;100.00;101163.75;5032957;28;20137;-54
2023/09/29 02:55:30;;;;;;;11.18;4.00;;;;;;;16.13;100.00;101090.09;5032834;28;20389;-54
2023/09/29 02:57:56;;;;;;;15.75;4.90;;;;;;;16.32;100.00;101137.78;5032678;28;20033;-56
2023/09/29 03:00:23;;;;;;;14.45;4.57;;;;;;;16.15;100.00;101109.44;5032756;28;20029;-51
2023/09/29 03:02:51;;;;;;;13.93;3.83;;;;;;;16.11;100.00;101099.06;5032485;28;20029;-51
2023/09/29 03:05:18;;;;;;;13.45;4.45;;;;;;;15.95;100.00;101063.59;5032225;28;20072;-54
2023/09/29 03:07:43;;;;;;;16.05;4.20;;;;;;;16.34;100.00;101139.44;5032204;28;20049;-55
2023/09/29 03:10:12;;;;;;;10.40;3.72;;;;;;;15.98;100.00;101077.59;5032344;28;20038;-51
2023/09/29 03:12:38;;;;;;;10.82;3.83;;;;;;;15.98;100.00;101068.75;5014496;28;20030;-50
2023/09/29 03:15:07;;;;;;;12.15;3.60;;;;;;;16.30;100.00;101121.94;5032461;28;20403;-56
2023/09/29 03:17:33;;;;;;;12.68;3.50;;;;;;;15.93;100.00;101066.34;5032530;28;20095;-52
2023/09/29 03:19:58;;;;;;;11.55;4.35;;;;;;;16.33;100.00;101132.41;5032362;28;20128;-53
2023/09/29 03:22:24;;;;;;;9.05;4.30;;;;;;;16.31;100.00;101112.19;5032520;28;20037;-51
2023/09/29 03:24:49;;;;;;;11.93;4.22;;;;;;;16.31;100.00;101107.72;5014742;28;20111;-55
2023/09/29 03:27:14;;;;;;;9.68;3.28;;;;;;;16.05;100.00;101068.34;5032098;28;20037;-51
2023/09/29 03:29:41;;;;;;;13.30;4.38;;;;;;;15.97;100.00;101048.44;5032148;28;20037;-51
2023/09/29 03:32:08;;;;;;;11.25;4.05;;;;;;;16.31;100.00;101101.56;5032237;28;20038;-55
2023/09/29 03:34:33;;;;;;;10.27;3.60;;;;;;;16.35;100.00;101108.41;5031775;28;20033;-55
2023/09/29 03:36:59;;;;;;;9.60;3.85;;;;;;;15.95;100.00;101039.72;5032249;28;20033;-52
2023/09/29 03:39:24;;;;;;;12.35;3.95;;;;;;;16.32;100.00;101085.53;5032036;28;20045;-48
2023/09/29 03:41:51;;;;;;;13.02;3.50;;;;;;;16.38;100.00;101091.44;5032002;28;20057;-52
2023/09/29 03:44:16;;;;;;;14.32;4.93;;;;;;;16.03;100.00;101033.06;5031684;28;20033;-54
2023/09/29 03:46:41;;;;;;;13.48;5.00;;;;;;;16.02;100.00;101022.53;5032043;28;20044;-54
2023/09/29 03:49:10;;;;;;;12.25;3.80;;;;;;;16.37;100.00;101085.31;5032191;28;20041;-51
2023/09/29 03:51:35;;;;;;;13.95;4.10;;;;;;;16.03;100.00;101025.09;5031758;28;20091;-54
2023/09/29 03:54:00;;;;;;;10.70;4.25;;;;;;;16.40;100.00;101093.13;5031735;28;20033;-50
2023/09/29 03:56:26;;;;;;;11.27;3.80;;;;;;;15.98;100.00;101003.25;5031579;28;20072;-56
2023/09/29 03:58:55;;;;;;;9.40;3.40;;;;;;;16.02;100.00;101006.59;5031649;28;20171;-51
2023/09/29 04:01:21;;;;;;;12.18;3.92;;;;;;;16.34;100.00;101064.22;5031710;28;20025;-55
2023/09/29 04:03:46;;;;;;;9.77;3.97;;;;;;;16.36;100.00;101070.28;5032023;28;20034;-53
2023/09/29 04:06:11;;;;;;;12.05;4.03;;;;;;;16.43;100.00;101078.81;5031821;28;20041;-54
2023/09/29 04:08:38;;;;;;;11.25;3.33;;;;;;;16.44;100.00;101080.50;5031883;28;20034;-53
2023/09/29 04:11:04;;;;;;;8.18;3.67;;;;;;;16.48;100.00;101076.75;5014004;28;20069;-50
2023/09/29 04:13:29;;;;;;;8.73;3.53;;;;;;;16.54;100.00;101081.78;5031611;28;20069;-51
2023/09/29 04:15:55;;;;;;;11.85;3.55;;;;;;;16.10;100.00;100999.09;5031625;28;20396;-50
2023/09/29 04:18:20;;;;;;;9.70;3.80;;;;;;;16.59;100.00;101069.09;5031596;28;20040;-54
2023/09/29 04:20:46;;;;;;;8.65;3.53;;;;;;;16.60;100.00;101076.16;5031828;28;20112;-49
2023/09/29 04:23:11;;;;;;;13.43;3.63;;;;;;;16.59;100.00;101050.50;5032911;28;20064;-48
2023/09/29 04:25:36;;;;;;;13.05;3.85;;;;;;;16.71;100.00;101065.78;5017784;28;20045;-51
2023/09/29 04:28:02;;;;;;;7.18;3.22;;;;;;;16.60;100.00;101039.81;5035380;28;20026;-52
2023/09/29 04:30:27;;;;;;;9.43;3.33;;;;;;;16.46;100.00;101010.41;5035378;28;20040;-53
2023/09/29 04:32:52;;;;;;;8.18;3.58;;;;;;;16.50;100.00;101016.41;5035735;28;20084;-50
2023/09/29 04:35:18;;;;;;;8.52;3.33;;;;;;;16.94;100.00;101075.16;5035537;28;20103;-50
2023/09/29 04:37:44;;;;;;;8.57;4.00;;;;;;;16.97;100.00;101069.69;5035189;28;20038;-48
2023/09/29 04:40:10;;;;;;;7.90;3.20;;;;;;;16.64;100.00;101013.91;5035311;28;20469;-50
2023/09/29 04:42:36;;;;;;;8.70;3.80;;;;;;;17.01;100.00;101072.09;5017092;28;20187;-49
2023/09/29 04:45:01;;;;;;;6.60;3.53;;;;;;;16.91;100.00;101046.94;5035366;28;20045;-50
2023/09/29 04:47:27;;;;;;;6.88;3.65;;;;;;;16.66;100.00;100998.75;5035239;28;20052;-49
2023/09/29 04:49:53;;;;;;;8.45;3.25;;;;;;;16.75;100.00;101020.34;5035195;28;20057;-53
2023/09/29 04:52:18;;;;;;;7.60;2.83;;;;;;;16.72;100.00;101001.91;5035216;28;20519;-48
2023/09/29 04:54:44;;;;;;;8.45;3.60;;;;;;;17.09;100.00;101059.25;5035071;28;20037;-49
2023/09/29 04:57:09;;;;;;;8.57;3.63;;;;;;;17.13;100.00;101047.47;5034767;28;20491;-50
2023/09/29 04:59:35;;;;;;;11.95;3.38;;;;;;;16.77;100.00;101001.66;5033902;28;20037;-51
2023/09/29 05:02:00;;;;;;;7.82;3.10;;;;;;;16.76;100.00;100984.84;5017395;28;20040;-49
2023/09/29 05:04:25;;;;;;;9.95;3.53;;;;;;;16.83;100.00;100993.34;5034933;28;20033;-48
2023/09/29 05:06:51;;;;;;;9.23;3.83;;;;;;;17.19;100.00;101064.91;5034722;28;20033;-50
2023/09/29 05:09:18;;;;;;;10.07;3.78;;;;;;;17.20;100.00;101056.81;5017045;28;20041;-54
2023/09/29 05:11:43;;;;;;;6.85;2.78;;;;;;;16.87;100.00;100986.91;5034553;28;20029;-50
2023/09/29 05:14:09;;;;;;;7.70;3.28;;;;;;;16.86;100.00;100995.84;5033461;28;20527;-52
2023/09/29 05:16:34;;;;;;;8.48;3.08;;;;;;;17.25;100.00;101060.06;5034723;28;20041;-50
2023/09/29 05:19:00;;;;;;;7.25;3.38;;;;;;;17.33;100.00;101070.31;5034394;28;20041;-50
2023/09/29 05:21:26;;;;;;;5.50;2.85;;;;;;;16.94;100.00;100996.25;5034446;28;20041;-48
2023/09/29 05:23:52;;;;;;;10.15;3.47;;;;;;;17.13;100.00;101025.34;5034421;28;20040;-51
2023/09/29 05:26:17;;;;;;;11.48;3.28;;;;;;;17.05;100.00;101014.25;5034610;28;20473;-52
2023/09/29 05:28:43;;;;;;;9.00;3.08;;;;;;;17.05;100.00;101006.28;5034442;28;20550;-49
2023/09/29 05:31:09;;;;;;;9.52;3.13;;;;;;;17.41;100.00;101074.25;5016614;28;20037;-50
2023/09/29 05:33:35;;;;;;;9.02;3.45;;;;;;;17.41;100.00;101090.22;5033876;28;20045;-54
2023/09/29 05:36:00;;;;;;;6.45;3.13;;;;;;;17.45;100.00;101078.44;5016225;28;20400;-51
2023/09/29 05:38:26;;;;;;;5.65;2.78;;;;;;;17.28;100.00;101027.13;5033887;28;20049;-52
2023/09/29 05:40:52;;;;;;;5.80;3.40;;;;;;;17.57;100.00;101078.72;5033649;28;20054;-50
2023/09/29 05:43:17;;;;;;;7.15;3.05;;;;;;;17.43;100.00;101051.06;5034192;28;20033;-52
2023/09/29 05:45:46;;;;;;;9.52;3.05;;;;;;;17.51;100.00;101058.63;5034186;28;20428;-54
2023/09/29 05:48:12;;;;;;;5.60;3.30;;;;;;;17.20;100.00;101008.94;5033648;28;20121;-54
2023/09/29 05:50:37;;;;;;;6.25;3.05;;;;;;;17.49;100.00;101051.63;5033192;28;20116;-49
2023/09/29 05:53:03;;;;;;;5.55;3.13;;;;;;;17.21;100.00;101007.16;5033680;28;20496;-51
2023/09/29 05:55:28;;;;;;;6.97;3.47;;;;;;;17.61;100.00;101072.25;5015795;28;20029;-55
2023/09/29 05:57:54;;;;;;;7.47;3.58;;;;;;;17.45;100.00;101046.50;5015753;28;20499;-51
2023/09/29 06:00:20;;;;;;;9.05;3.25;;;;;;;17.66;100.00;101070.22;5032685;28;20099;-50
2023/09/29 06:02:46;;;;;;;7.65;3.13;;;;;;;17.39;100.00;101008.75;5032421;28;20370;-49
2023/09/29 06:05:12;;;;;;;4.25;3.10;;;;;;;17.29;100.00;100989.78;5033703;28;20427;-51
2023/09/29 06:07:37;;;;;;;8.07;3.10;;;;;;;17.66;100.00;101043.59;5015682;28;20042;-49
2023/09/29 06:10:04;;;;;;;4.20;3.13;;;;;;;17.88;100.00;101062.69;5015221;28;20086;-49
2023/09/29 06:12:29;;;;;;;6.30;2.78;;;;;;;17.94;100.00;101070.31;5015715;28;20036;-54
2023/09/29 06:14:55;;;;;;;9.90;3.10;;;;;;;17.87;100.00;101055.63;5032636;28;20034;-50
2023/09/29 06:17:20;;;;;;;7.15;3.03;;;;;;;18.01;100.00;101076.13;5033223;28;20033;-49
2023/09/29 06:19:45;;;;;;;4.55;2.55;;;;;;;17.55;100.00;100998.09;5033558;28;20049;-50
2023/09/29 06:22:11;;;;;;;7.03;3.10;;;;;;;18.05;100.00;101085.66;5034089;28;20039;-52
2023/09/29 06:24:36;;;;;;;5.22;2.53;;;;;;;18.06;100.00;101069.59;5015398;28;20037;-49
2023/09/29 06:27:01;;;;;;;7.10;2.80;;;;;;;18.20;100.00;101082.94;5015783;28;20041;-49
2023/09/29 06:29:27;;;;;;;5.78;2.50;;;;;;;18.25;100.00;101082.66;5033329;28;20397;-50
2023/09/29 06:31:54;;;;;;;7.28;2.97;;;;;;;18.30;100.00;101094.75;5033287;28;20025;-54
2023/09/29 06:34:19;;;;;;;4.00;2.50;;;;;;;17.96;100.00;101037.31;5033114;28;20038;-49
2023/09/29 06:36:44;;;;;;;5.30;2.60;;;;;;;18.30;100.00;101085.91;5033475;28;20121;-53
2023/09/29 06:39:12;;;;;;;7.72;3.05;;;;;;;18.45;100.00;101090.28;5032770;28;20500;-49
2023/09/29 06:41:37;;;;;;;8.35;2.80;;;;;;;18.50;100.00;101107.75;5015083;28;20049;-50
2023/09/29 06:44:02;;;;;;;5.35;2.65;;;;;;;18.53;100.00;101104.91;5032930;28;20107;-49
2023/09/29 06:46:28;;;;;;;5.22;2.88;;;;;;;18.57;100.00;101110.91;5032206;28;20030;-48
2023/09/29 06:48:53;;;;;;;5.47;2.70;;;;;;;18.59;100.00;101100.16;5032979;28;20366;-52
2023/09/29 06:51:18;;;;;;;4.65;3.30;;;;;;;18.51;100.00;101096.16;5031645;28;20079;-48
2023/09/29 06:53:44;;;;;;;7.97;3.45;;;;;;;18.34;100.00;101071.44;5032612;28;20463;-49
2023/09/29 06:56:10;;;;;;;9.13;3.78;;;;;;;17.98;100.00;101022.09;5032558;28;20120;-50
2023/09/29 06:58:36;;;;;;;6.00;3.50;;;;;;;18.18;100.00;101066.19;5032652;28;20038;-49
2023/09/29 07:01:02;;;;;;;7.88;3.60;;;;;;;17.81;100.00;101003.59;5032610;28;20051;-48
2023/09/29 07:03:29;;;;;;;8.98;3.42;;;;;;;17.87;100.00;101015.69;5015150;28;20029;-48
2023/09/29 07:05:55;;;;;;;7.78;3.50;;;;;;;18.06;100.00;101056.28;5014689;28;20100;-51
2023/09/29 07:08:20;;;;;;;7.13;3.85;;;;;;;18.10;100.00;101079.09;5013293;28;20262;-49
2023/09/29 07:10:46;;;;;;;4.82;3.80;;;;;;;17.94;100.00;101041.88;5011799;28;20041;-51
2023/09/29 07:13:11;;;;;;;7.18;4.00;;;;;;;18.18;100.00;101073.31;4995854;28;20041;-48
2023/09/29 07:15:36;;;;;;;7.03;4.07;;;;;;;18.19;100.00;101077.69;5030250;28;20116;-48
2023/09/29 07:18:02;;;;;;;6.80;3.72;;;;;;;17.90;100.00;101027.00;5029978;28;20105;-49
2023/09/29 07:20:30;;;;;;;8.13;4.20;;;;;;;17.92;100.00;101032.28;5030006;28;20061;-48
2023/09/29 07:22:56;;;;;;;6.65;4.60;;;;;;;17.99;100.00;101036.25;5029898;28;20041;-48
2023/09/29 07:25:22;;;;;;;4.38;3.90;;;;;;;17.94;100.00;101025.03;5030241;28;20033;-49
2023/09/29 07:27:48;;;;;;;7.25;3.50;;;;;;;18.43;100.00;101110.84;5030078;28;20037;-50
2023/09/29 07:30:14;;;;;;;7.10;3.72;;;;;;;18.40;100.00;101087.06;5029925;28;20588;-49
2023/09/29 07:32:42;;;;;;;9.68;3.50;;;;;;;18.43;100.00;101101.06;5029939;28;20048;-48
2023/09/29 07:35:08;;;;;;;8.23;3.90;;;;;;;18.56;100.00;101111.88;5029816;28;20052;-47
2023/09/29 07:37:34;;;;;;;8.23;3.80;;;;;;;18.23;100.00;101044.59;5011280;28;20041;-46
2023/09/29 07:39:59;;;;;;;9.90;4.07;;;;;;;18.59;100.00;101108.16;5029735;28;20397;-48
2023/09/29 07:42:24;;;;;;;9.50;4.15;;;;;;;18.59;100.00;101113.50;5028871;28;20053;-46
2023/09/29 07:44:50;;;;;;;7.15;4.07;;;;;;;18.57;100.00;101108.25;5028964;28;20129;-49
2023/09/29 07:47:15;;;;;;;7.60;3.85;;;;;;;18.56;100.00;101111.00;5028780;28;20461;-49
2023/09/29 07:49:40;;;;;;;8.35;3.63;;;;;;;18.60;100.00;101102.72;5028186;28;20392;-49
2023/09/29 07:52:07;;;;;;;5.60;3.25;;;;;;;18.72;100.00;101096.63;5010065;28;20033;-48
2023/09/29 07:54:34;;;;;;;8.40;3.78;;;;;;;18.44;100.00;101037.94;5028695;28;20041;-48
2023/09/29 07:57:00;;;;;;;8.18;3.42;;;;;;;18.81;100.00;101087.19;5010464;28;20029;-48
2023/09/29 07:59:25;;;;;;;4.60;3.72;;;;;;;18.82;100.00;101079.13;5028963;28;20544;-47
2023/09/29 08:01:52;;;;;;;4.07;2.95;;;;;;;19.02;100.00;101099.19;5011669;28;20102;-49
2023/09/29 08:04:17;;;;;;;7.90;4.00;;;;;;;18.88;100.00;101060.06;5028912;28;20044;-50
2023/09/29 08:06:43;;;;;;;7.03;3.58;;;;;;;19.27;100.00;101098.47;5011139;28;20034;-47
2023/09/29 08:09:08;;;;;;;7.32;3.70;;;;;;;19.29;100.00;101076.09;5028863;28;20045;-49
2023/09/29 08:11:34;;;;;;;6.00;3.15;;;;;;;19.40;100.00;101094.97;5029265;28;20112;-51
2023/09/29 08:14:00;;;;;;;7.60;3.55;;;;;;;19.57;100.00;101118.75;5029060;28;20492;-48
2023/09/29 08:16:25;;;;;;;6.70;3.65;;;;;;;19.62;100.00;101118.44;5029134;28;20029;-50
2023/09/29 08:18:50;;;;;;;6.13;3.30;;;;;;;19.37;100.00;101059.56;5029155;28;20128;-51
2023/09/29 08:21:15;;;;;;;4.57;2.78;;;;;;;19.62;100.00;101075.72;5029287;28;20034;-52
2023/09/29 08:23:41;;;;;;;7.30;3.03;;;;;;;19.83;100.00;101078.78;5029184;28;20041;-47
2023/09/29 08:26:06;;;;;;;5.13;2.92;;;;;;;19.96;100.00;101069.88;5028906;28;20037;-47
2023/09/29 08:28:31;;;;;;;6.35;3.22;;;;;;;20.11;100.00;101076.81;5027711;28;20034;-50
2023/09/29 08:30:57;;;;;;;8.88;3.03;;;;;;;20.50;100.00;101137.44;5029124;28;20036;-47
2023/09/29 08:33:27;;;;;;;3.50;2.67;;;;;;;20.65;100.00;101160.44;5012355;28;20072;-47
2023/09/29 08:35:54;;;;;;;5.93;2.80;;;;;;;20.33;100.00;101100.31;5029652;28;20064;-46
2023/09/29 08:38:20;;;;;;;5.38;2.35;;;;;;;20.66;100.00;101138.09;5011827;28;20481;-48
2023/09/29 08:40:46;;;;;;;7.10;2.55;;;;;;;20.60;100.00;101118.94;5012057;28;20054;-49
2023/09/29 08:43:13;;;;;;;4.80;2.92;;;;;;;20.61;100.00;101105.44;5012168;28;20116;-51
2023/09/29 08:45:42;;;;;;;7.55;2.92;;;;;;;20.90;100.00;101145.38;5012253;28;20083;-49
2023/09/29 08:48:11;;;;;;;4.18;2.38;;;;;;;20.73;100.00;101115.28;5029995;28;20033;-48
2023/09/29 08:50:39;;;;;;;6.35;2.10;;;;;;;21.03;100.00;101178.31;5029824;28;20041;-47
2023/09/29 08:53:05;;;;;;;4.32;2.30;;;;;;;20.65;100.00;101135.50;5029831;28;20029;-47
2023/09/29 08:55:30;;;;;;;5.53;3.22;;;;;;;20.94;100.00;101181.63;5029706;28;20477;-47
2023/09/29 08:57:56;;;;;;;4.93;3.13;;;;;;;20.97;100.00;101189.44;5029687;28;20037;-49
2023/09/29 09:00:23;;;;;;;4.05;2.20;;;;;;;20.70;100.00;101142.25;5012008;28;20044;-48
2023/09/29 09:02:48;;;;;;;3.55;2.17;;;;;;;20.88;100.00;101196.31;5029671;28;20443;-46
2023/09/29 09:05:17;;;;;;;4.57;2.53;;;;;;;20.74;100.00;101186.56;5028154;28;20213;-47
2023/09/29 09:07:43;;;;;;;3.50;2.22;;;;;;;20.52;100.00;101194.34;5029490;28;20128;-46
2023/09/29 09:10:10;;;;;;;5.30;2.47;;;;;;;20.31;100.00;101163.72;5032211;28;20493;-49
2023/09/29 09:12:37;;;;;;;4.60;2.45;;;;;;;20.40;100.00;101208.53;5014949;28;20030;-48
2023/09/29 09:15:03;;;;;;;9.63;2.50;;;;;;;20.40;100.00;101188.97;5032074;28;20091;-48
2023/09/29 09:17:30;;;;;;;3.28;2.22;;;;;;;20.24;100.00;101151.69;5033155;28;20385;-48
2023/09/29 09:19:55;;;;;;;4.00;2.40;;;;;;;20.52;100.00;101182.81;5033132;28;20128;-51
2023/09/29 09:22:26;;;;;;;4.28;2.80;;;;;;;20.66;100.00;101194.28;5033072;28;20152;-50
2023/09/29 09:24:57;;;;;;;;;;;;;;;20.77;100.00;101198.88;5033530;28;20121;-48
2023/09/29 09:27:22;;;;;;;;;;;;;;;20.77;100.00;101191.72;5033572;28;19967;-47
2023/09/29 09:29:48;;;;;;;3.87;2.70;;;;;;;20.39;100.00;101148.00;5033135;28;20335;-46
2023/09/29 09:32:14;;;;;;;4.57;3.35;;;;;;;20.65;100.00;101197.03;5032866;28;20678;-48
2023/09/29 09:34:41;;;;;;;4.97;2.80;;;;;;;20.14;100.00;101134.53;5033116;28;20037;-47
2023/09/29 09:37:07;;;;;;;6.60;2.80;;;;;;;20.17;100.00;101183.31;5033053;28;20045;-49
2023/09/29 09:39:34;;;;;;;4.45;3.00;;;;;;;19.81;100.00;101144.81;5032923;28;20443;-53
2023/09/29 09:42:01;;;;;;;4.35;3.08;;;;;;;19.98;100.00;101192.66;5031312;28;20053;-48
2023/09/29 09:44:27;;;;;;;4.63;2.92;;;;;;;19.86;100.00;101186.28;5032887;28;20168;-50
2023/09/29 09:47:10;;;;;;;3.53;2.67;;;;;;;19.50;100.00;101120.09;5014958;28;20037;-47
2023/09/29 09:49:38;;;;;;;6.38;3.05;;;;;;;20.07;100.00;101213.44;5032805;28;20033;-50
2023/09/29 09:52:15;;;;;;;6.30;2.80;;;;;;;20.10;100.00;101214.09;5015268;28;20044;-51
2023/09/29 09:54:52;;;;;;;4.75;2.92;;;;;;;19.92;100.00;101182.38;5032491;28;20085;-47
2023/09/29 09:57:45;;;;;;;3.55;2.30;;;;;;;19.89;100.00;101209.28;5031463;28;20041;-49
2023/09/29 10:00:14;;;;;;;5.78;3.35;;;;;;;19.61;100.00;101212.88;5011581;28;20420;-50
2023/09/29 10:02:52;;;;;;;3.92;3.00;;;;;;;19.42;100.00;101223.00;5032558;28;20049;-51
2023/09/29 10:05:23;;;;;;;4.72;3.65;;;;;;;19.31;100.00;101239.66;5032223;28;20037;-52
2023/09/29 10:07:49;;;;;;;2.85;2.22;;;;;;;18.74;100.00;101187.22;5031032;28;20083;-49
2023/09/29 10:10:31;;;;;;;7.45;4.68;;;;;;;18.60;100.00;101197.84;5031141;28;20095;-51
2023/09/29 10:12:57;;;;;;;3.95;2.17;;;;;;;18.90;100.00;101292.03;5032382;28;20048;-49
2023/09/29 10:15:23;;;;;;;5.00;1.92;;;;;;;18.71;100.00;101283.41;5031742;28;20121;-52
2023/09/29 10:17:49;;;;;;;9.05;2.53;;;;;;;18.62;100.00;101281.28;5032569;28;20112;-51
2023/09/29 10:20:24;;;;;;;7.07;2.33;;;;;;;18.16;100.00;101227.94;5030830;28;20045;-50
2023/09/29 10:22:54;;;;;;;11.02;3.35;;;;;;;18.44;100.00;101285.84;5030933;28;20036;-51
2023/09/29 10:25:24;;;;;;;4.70;2.43;;;;;;;18.03;100.00;101234.06;5031944;28;20488;-51
2023/09/29 10:27:59;;;;;;;12.10;2.20;;;;;;;18.32;100.00;101314.06;5032106;28;20121;-51
2023/09/29 10:30:26;;;;;;;6.13;2.00;;;;;;;18.24;100.00;101323.44;5030275;28;20402;-52
2023/09/29 10:33:10;;;;;;;7.88;2.15;;;;;;;18.19;100.00;101329.00;5030618;28;20056;-47
2023/09/29 10:35:44;;;;;;;4.20;1.83;;;;;;;17.74;100.00;101257.88;5031793;28;20048;-49
2023/09/29 10:38:12;;;;;;;6.78;1.98;;;;;;;18.19;100.00;101342.31;5031779;28;20111;-48
2023/09/29 10:40:38;;;;;;;6.85;1.80;;;;;;;17.93;100.00;101303.81;5013850;28;20412;-49
2023/09/29 10:43:04;;;;;;;5.72;1.33;;;;;;;17.92;100.00;101326.06;5031650;28;20108;-54
2023/09/29 10:45:37;;;;;;;7.75;3.03;;;;;;;17.74;100.00;101287.16;5031742;28;20045;-50
2023/09/29 10:48:05;;;;;;;5.75;2.22;;;;;;;18.02;100.00;101355.72;5031812;28;20033;-49
2023/09/29 10:50:43;;;;;;;6.50;1.80;;;;;;;17.98;100.00;101363.03;5031347;28;20474;-49
2023/09/29 10:53:09;;;;;;;3.83;1.63;;;;;;;17.88;100.00;101337.84;5031367;28;20108;-52
2023/09/29 10:55:46;;;;;;;13.52;2.20;;;;;;;17.68;100.00;101314.13;5013449;28;20653;-47
2023/09/29 10:58:13;;;;;;;4.53;1.67;;;;;;;17.95;100.00;101380.97;5013697;28;20457;-48
2023/09/29 11:00:49;;;;;;;9.15;1.58;;;;;;;17.30;100.00;101302.81;5013809;28;20033;-52
2023/09/29 11:03:16;;;;;;;4.05;1.40;;;;;;;17.76;100.00;101391.75;5013671;28;20038;-48
2023/09/29 11:05:48;;;;;;;4.88;1.92;;;;;;;18.03;100.00;101399.22;5029937;28;20120;-48
2023/09/29 11:08:13;;;;;;;7.32;1.90;;;;;;;17.91;100.00;101326.16;5013766;28;20037;-54
2023/09/29 11:10:39;;;;;;;4.28;1.88;;;;;;;18.61;100.00;101405.72;5031306;28;20060;-51
2023/09/29 11:13:16;;;;;;;8.10;1.90;;;;;;;18.88;100.00;101403.28;5031055;28;20120;-52